Time;durP1;ratioP1;P1;durP2;ratioP2;P2;SDS_P1;SDS_P2;PMS_P1;PMS_P2;Temp;Humidity;BMP_temperature;BMP_pressure;BME280_temperature;BME280_humidity;BME280_pressure;Samples;Min_cycle;Max_cycle;Signal;HPM_P1;HPM_P2
2023/02/22 00:00:41;;;;;;;27.30;17.27;;;;;;;-13.03;71.59;144129.88;5060646;28;20045;-64
2023/02/22 00:03:17;;;;;;;31.45;18.02;;;;;;;-12.97;71.19;144143.69;5061047;28;20037;-65
2023/02/22 00:05:46;;;;;;;29.05;17.80;;;;;;;-12.91;71.51;144160.03;5061123;28;20032;-64
2023/02/22 00:08:15;;;;;;;29.02;18.45;;;;;;;-12.93;70.60;144153.75;5060914;28;20536;-64
2023/02/22 00:10:41;;;;;;;29.15;18.15;;;;;;;-13.00;70.63;144136.16;5060604;28;20088;-63
2023/02/22 00:13:09;;;;;;;27.80;17.90;;;;;;;-13.04;71.06;144127.34;5060770;28;20140;-65
2023/02/22 00:15:35;;;;;;;29.60;18.73;;;;;;;-12.95;70.51;144148.69;5060924;28;20027;-64
2023/02/22 00:18:02;;;;;;;32.17;18.02;;;;;;;-13.10;71.43;144112.28;5060783;28;20037;-65
2023/02/22 00:20:28;;;;;;;29.23;17.23;;;;;;;-13.50;71.51;144015.63;5060574;28;20115;-64
2023/02/22 00:22:53;;;;;;;29.05;17.80;;;;;;;-13.32;70.97;144058.25;5060635;28;20256;-63
2023/02/22 00:25:22;;;;;;;29.52;17.67;;;;;;;-13.31;70.97;144062.03;5060862;28;20028;-65
2023/02/22 00:27:52;;;;;;;29.67;18.48;;;;;;;-13.24;71.03;144079.66;5060656;28;20029;-63
2023/02/22 00:30:25;;;;;;;31.75;18.02;;;;;;;-13.25;71.83;144077.13;5060206;28;20028;-63
2023/02/22 00:32:52;;;;;;;29.13;18.38;;;;;;;-13.36;70.43;144049.53;5060324;28;20209;-63
2023/02/22 00:35:20;;;;;;;31.13;17.95;;;;;;;-13.27;70.73;144072.06;5060227;28;20024;-63
2023/02/22 00:37:47;;;;;;;30.10;18.38;;;;;;;-13.21;70.80;144087.19;5042353;28;20254;-63
2023/02/22 00:40:17;;;;;;;29.50;18.70;;;;;;;-13.22;71.22;144084.66;5060009;28;20060;-64
2023/02/22 00:42:45;;;;;;;28.67;18.35;;;;;;;-13.46;71.28;144025.69;5042580;28;20032;-63
2023/02/22 00:45:11;;;;;;;32.50;18.80;;;;;;;-13.37;70.63;144048.25;5059837;28;20032;-63
2023/02/22 00:47:37;;;;;;;29.00;18.75;;;;;;;-13.27;70.17;144070.84;5060744;28;20045;-64
2023/02/22 00:50:03;;;;;;;28.23;17.63;;;;;;;-13.33;70.64;144055.78;5060525;28;20040;-63
2023/02/22 00:52:29;;;;;;;29.60;18.73;;;;;;;-13.28;70.86;144068.31;5060463;28;20021;-63
2023/02/22 00:54:56;;;;;;;34.58;18.92;;;;;;;-13.21;70.08;144085.88;5060444;28;20036;-63
2023/02/22 00:57:23;;;;;;;28.92;17.90;;;;;;;-13.12;70.09;144108.53;5060597;28;20100;-63
2023/02/22 00:59:49;;;;;;;33.60;19.77;;;;;;;-13.15;70.04;144099.69;5060040;28;20032;-65
2023/02/22 01:02:15;;;;;;;34.13;19.45;;;;;;;-13.14;69.33;144103.47;5060051;28;20097;-64
2023/02/22 01:04:40;;;;;;;28.23;18.83;;;;;;;-13.23;69.37;144080.88;5060295;28;20246;-65
2023/02/22 01:07:06;;;;;;;31.30;19.05;;;;;;;-13.19;69.22;144090.94;5061060;28;20029;-64
2023/02/22 01:09:31;;;;;;;33.58;20.60;;;;;;;-13.32;69.59;144059.53;5063867;28;20029;-63
2023/02/22 01:11:57;;;;;;;29.75;18.75;;;;;;;-13.62;69.44;143986.78;5063421;28;20016;-65
2023/02/22 01:14:26;;;;;;;32.00;18.42;;;;;;;-13.46;69.36;144025.69;5064062;28;20031;-64
2023/02/22 01:16:55;;;;;;;30.52;19.17;;;;;;;-13.33;68.64;144055.78;5063892;28;20470;-65
2023/02/22 01:19:21;;;;;;;33.55;19.77;;;;;;;-13.37;69.73;144048.25;5063728;28;20060;-64
2023/02/22 01:21:48;;;;;;;31.63;18.25;;;;;;;-13.29;69.06;144067.06;5062850;28;20105;-64
2023/02/22 01:24:15;;;;;;;30.92;18.85;;;;;;;-13.38;68.73;144045.78;5063420;28;20025;-64
2023/02/22 01:26:50;;;;;;;31.27;18.98;;;;;;;-13.67;68.61;143972.97;5063477;28;20035;-65
2023/02/22 01:29:17;;;;;;;32.55;19.48;;;;;;;-13.56;69.92;144000.59;5045025;28;20225;-65
2023/02/22 01:31:51;;;;;;;31.88;19.67;;;;;;;-13.43;68.32;144031.97;5062489;28;20035;-65
2023/02/22 01:34:17;;;;;;;30.80;18.30;;;;;;;-13.47;68.73;144021.91;5063069;28;20033;-63
2023/02/22 01:36:43;;;;;;;30.23;19.48;;;;;;;-13.49;68.85;144018.16;5063645;28;20078;-63
2023/02/22 01:39:09;;;;;;;31.45;19.88;;;;;;;-13.57;70.37;143998.06;5063559;28;20075;-63
2023/02/22 01:41:35;;;;;;;29.08;18.25;;;;;;;-13.48;69.71;144020.69;5062881;28;20029;-64
2023/02/22 01:44:25;;;;;;;36.05;21.10;;;;;;;-13.51;69.40;144013.09;5063253;28;20035;-65
2023/02/22 01:46:51;;;;;;;32.30;19.25;;;;;;;-13.44;69.67;144030.69;5058260;28;20287;-65
2023/02/22 01:49:17;;;;;;;31.23;19.45;;;;;;;-13.29;69.62;144067.06;5083425;28;20089;-65
2023/02/22 01:51:51;;;;;;;32.35;20.20;;;;;;;-13.40;68.51;144040.72;5082927;28;20248;-67
2023/02/22 01:54:29;;;;;;;34.30;20.10;;;;;;;-13.58;68.87;143995.53;5083533;28;20020;-63
2023/02/22 01:57:16;;;;;;;30.83;19.25;;;;;;;-13.36;69.10;144049.53;5083210;28;20020;-64
2023/02/22 01:59:47;;;;;;;34.60;20.50;;;;;;;-13.52;69.03;144009.34;5083337;28;20029;-65
2023/02/22 02:02:13;;;;;;;32.40;20.20;;;;;;;-13.53;68.20;144006.88;5083153;28;20034;-65
2023/02/22 02:04:41;;;;;;;31.45;19.60;;;;;;;-13.44;69.47;144030.69;5065668;28;20040;-63
2023/02/22 02:07:10;;;;;;;32.40;20.40;;;;;;;-13.47;68.94;144023.16;5065185;28;20035;-63
2023/02/22 02:09:43;;;;;;;34.58;20.92;;;;;;;-13.78;69.57;143947.88;5083025;28;20028;-63
2023/02/22 02:12:11;;;;;;;31.05;19.88;;;;;;;-13.83;70.14;143935.31;5082509;28;20025;-64
2023/02/22 02:14:40;;;;;;;30.90;19.98;;;;;;;-13.63;68.48;143983.00;5083021;28;20024;-64
2023/02/22 02:17:12;;;;;;;32.28;19.73;;;;;;;-13.70;69.28;143965.44;5082415;28;20036;-65
2023/02/22 02:20:06;;;;;;;34.08;21.52;;;;;;;-13.69;69.67;143967.91;5082607;28;20025;-66
2023/02/22 02:22:46;;;;;;;34.00;21.38;;;;;;;-13.67;69.56;143972.97;5082398;28;20028;-63
2023/02/22 02:25:37;;;;;;;35.80;20.27;;;;;;;-13.65;68.84;143979.25;5082297;28;20121;-66
2023/02/22 02:28:50;;;;;;;39.35;22.20;;;;;;;-13.80;70.16;143942.81;5082749;28;20352;-63
2023/02/22 02:31:38;;;;;;;33.50;21.35;;;;;;;-13.72;68.77;143961.69;5010549;28;20046;-64
2023/02/22 02:34:20;;;;;;;34.00;21.83;;;;;;;-13.58;69.02;143995.53;5082557;28;20031;-64
2023/02/22 02:36:51;;;;;;;33.13;20.75;;;;;;;-13.68;69.62;143970.44;5082647;28;20028;-64
2023/02/22 02:39:16;;;;;;;33.20;22.70;;;;;;;-13.59;68.62;143993.06;5082463;28;20024;-64
2023/02/22 02:41:49;;;;;;;35.85;22.15;;;;;;;-13.73;68.32;143959.16;5081674;28;20052;-64
2023/02/22 02:44:24;;;;;;;33.33;21.48;;;;;;;-13.71;69.95;143964.16;5075015;28;20066;-65
2023/02/22 02:47:07;;;;;;;35.95;22.55;;;;;;;-13.69;69.00;143969.19;5082141;28;20044;-64
2023/02/22 02:49:42;;;;;;;34.10;21.85;;;;;;;-13.85;69.77;143930.31;5082148;28;20040;-65
2023/02/22 02:52:12;;;;;;;32.15;21.90;;;;;;;-13.78;69.62;143947.88;5081567;28;20132;-64
2023/02/22 02:54:38;;;;;;;35.42;22.98;;;;;;;-13.70;69.26;143965.44;5082167;28;20028;-64
2023/02/22 02:57:04;;;;;;;36.53;21.80;;;;;;;-13.86;69.08;143927.78;5081764;28;20088;-64
2023/02/22 02:59:38;;;;;;;33.40;22.30;;;;;;;-13.77;68.64;143950.34;5082071;28;20021;-63
2023/02/22 03:02:34;;;;;;;30.65;20.63;;;;;;;-13.67;70.03;143972.97;5081446;28;20039;-63
2023/02/22 03:05:45;;;;;;;31.30;21.20;;;;;;;-13.62;68.89;143985.50;5081749;28;20291;-62
2023/02/22 03:08:34;;;;;;;32.78;21.65;;;;;;;-13.87;69.60;143925.25;5073668;28;20232;-63
2023/02/22 03:11:06;;;;;;;33.95;21.02;;;;;;;-13.64;68.72;143980.50;5081078;28;20201;-63
2023/02/22 03:13:44;;;;;;;32.42;21.95;;;;;;;-13.73;68.27;143960.41;5081866;28;20028;-63
2023/02/22 03:16:32;;;;;;;31.27;21.40;;;;;;;-13.58;68.46;143995.53;5081667;28;20020;-63
2023/02/22 03:19:24;;;;;;;36.13;21.85;;;;;;;-13.52;68.26;144010.63;5082146;28;20208;-63
2023/02/22 03:22:13;;;;;;;34.88;21.45;;;;;;;-13.83;68.34;143935.31;5081411;28;20351;-62
2023/02/22 03:24:54;;;;;;;33.42;22.00;;;;;;;-13.87;69.68;143925.25;5082292;28;20052;-63
2023/02/22 03:27:52;;;;;;;35.50;22.48;;;;;;;-13.88;69.83;143922.72;5082125;28;20040;-63
2023/02/22 03:30:36;;;;;;;32.45;21.42;;;;;;;-13.87;69.59;143924.03;5080893;28;20113;-64
2023/02/22 03:33:11;;;;;;;33.20;20.52;;;;;;;-13.71;69.06;143964.16;5081757;28;20329;-65
2023/02/22 03:35:47;;;;;;;33.83;20.33;;;;;;;-14.13;69.06;143862.53;5081982;28;20024;-64
2023/02/22 03:38:16;;;;;;;29.20;19.95;;;;;;;-13.84;68.35;143932.78;5073999;28;20072;-65
2023/02/22 03:40:47;;;;;;;30.92;20.40;;;;;;;-13.98;69.43;143898.88;5081410;28;20398;-64
2023/02/22 03:43:17;;;;;;;30.70;21.20;;;;;;;-13.79;68.95;143944.13;5073588;28;20036;-65
2023/02/22 03:45:45;;;;;;;32.88;21.10;;;;;;;-13.74;70.17;143957.88;5063929;28;20056;-63
2023/02/22 03:48:36;;;;;;;28.42;19.98;;;;;;;-13.87;69.58;143924.03;5055728;28;20040;-64
2023/02/22 03:51:03;;;;;;;34.53;22.00;;;;;;;-13.76;69.51;143951.63;5081247;28;20059;-64
2023/02/22 03:53:30;;;;;;;31.60;20.90;;;;;;;-13.91;68.78;143915.22;5075974;28;20020;-63
2023/02/22 03:55:58;;;;;;;32.17;21.50;;;;;;;-13.81;68.77;143940.31;5079583;28;20109;-66
2023/02/22 03:58:29;;;;;;;32.55;21.55;;;;;;;-13.98;68.82;143897.66;5081748;28;20048;-64
2023/02/22 04:00:55;;;;;;;30.75;20.75;;;;;;;-13.83;69.52;143935.31;5080594;28;20304;-64
2023/02/22 04:03:21;;;;;;;29.13;20.02;;;;;;;-13.74;70.17;143957.88;5081572;28;20032;-65
2023/02/22 04:05:47;;;;;;;32.55;21.60;;;;;;;-13.78;69.88;143947.88;5081398;28;20067;-66
2023/02/22 04:08:12;;;;;;;31.95;20.70;;;;;;;-13.87;69.48;143924.03;5081481;28;20093;-63
2023/02/22 04:10:38;;;;;;;33.85;21.25;;;;;;;-13.73;68.61;143960.41;5080888;28;20086;-65
2023/02/22 04:13:05;;;;;;;32.92;21.27;;;;;;;-13.78;69.16;143947.88;5081293;28;20066;-63
2023/02/22 04:15:31;;;;;;;29.40;20.08;;;;;;;-13.66;69.05;143976.72;5081859;28;20308;-63
2023/02/22 04:17:57;;;;;;;32.35;22.60;;;;;;;-13.73;68.74;143960.41;5081606;28;20032;-64
2023/02/22 04:20:24;;;;;;;30.85;20.13;;;;;;;-13.69;68.28;143969.19;5081565;28;20028;-64
2023/02/22 04:22:54;;;;;;;32.38;20.45;;;;;;;-13.88;69.38;143922.72;5081622;28;20094;-64
2023/02/22 04:25:22;;;;;;;36.00;21.40;;;;;;;-14.05;68.57;143881.31;5081776;28;20025;-63
2023/02/22 04:27:48;;;;;;;35.72;22.08;;;;;;;-13.95;69.29;143906.44;5081764;28;20035;-62
2023/02/22 04:30:17;;;;;;;33.70;21.77;;;;;;;-13.95;68.51;143905.16;5081363;28;20032;-62
2023/02/22 04:32:43;;;;;;;28.98;20.52;;;;;;;-13.82;69.04;143937.81;5063693;28;20240;-62
2023/02/22 04:35:09;;;;;;;31.58;19.95;;;;;;;-13.91;67.36;143916.50;5081470;28;20024;-62
2023/02/22 04:37:34;;;;;;;34.67;20.92;;;;;;;-13.82;67.79;143937.81;5081759;28;20051;-63
2023/02/22 04:40:01;;;;;;;32.90;20.63;;;;;;;-13.95;69.36;143906.44;5081510;28;20197;-63
2023/02/22 04:42:27;;;;;;;33.10;20.60;;;;;;;-14.06;68.02;143878.84;5084211;28;20060;-63
2023/02/22 04:44:53;;;;;;;30.67;19.77;;;;;;;-13.90;68.10;143918.97;5085250;28;20535;-62
2023/02/22 04:47:19;;;;;;;33.05;22.25;;;;;;;-14.12;68.32;143865.03;5085667;28;20064;-63
2023/02/22 04:49:44;;;;;;;32.78;21.40;;;;;;;-14.04;67.80;143883.84;5085389;28;20070;-64
2023/02/22 04:52:10;;;;;;;35.70;21.15;;;;;;;-14.03;67.51;143886.38;5084618;28;20328;-63
2023/02/22 04:54:36;;;;;;;29.77;20.45;;;;;;;-14.11;67.92;143866.28;5084631;28;20063;-63
2023/02/22 04:57:02;;;;;;;30.45;20.60;;;;;;;-13.83;68.87;143934.06;5084433;28;20040;-63
2023/02/22 04:59:27;;;;;;;35.00;20.80;;;;;;;-13.82;66.86;143936.53;5085059;28;20035;-63
2023/02/22 05:01:53;;;;;;;33.00;21.35;;;;;;;-13.77;67.99;143949.09;5084214;28;20064;-63
2023/02/22 05:04:20;;;;;;;30.70;20.85;;;;;;;-13.87;67.39;143925.25;5084765;28;20044;-62
2023/02/22 05:06:46;;;;;;;27.90;19.60;;;;;;;-13.77;67.88;143949.09;5084712;28;20040;-64
2023/02/22 05:09:12;;;;;;;31.98;21.33;;;;;;;-13.76;67.72;143952.88;5084501;28;20074;-64
2023/02/22 05:11:38;;;;;;;31.17;19.92;;;;;;;-13.85;67.51;143930.31;5084160;28;20020;-63
2023/02/22 05:14:04;;;;;;;33.13;21.85;;;;;;;-13.79;67.21;143945.34;5084645;28;20063;-64
2023/02/22 05:16:29;;;;;;;31.08;19.98;;;;;;;-13.91;66.72;143915.22;5084915;28;20036;-63
2023/02/22 05:18:55;;;;;;;32.67;20.73;;;;;;;-14.34;66.35;143811.06;5084736;28;20047;-64
2023/02/22 05:21:20;;;;;;;33.25;20.75;;;;;;;-14.18;67.95;143849.97;5066288;28;20117;-63
2023/02/22 05:23:46;;;;;;;32.05;21.10;;;;;;;-14.18;67.82;143848.72;5084466;28;20028;-63
2023/02/22 05:26:12;;;;;;;29.67;21.02;;;;;;;-14.08;67.34;143873.81;5084570;28;20232;-63
2023/02/22 05:28:37;;;;;;;31.52;20.85;;;;;;;-13.92;67.38;143912.69;5084329;28;20219;-64
2023/02/22 05:31:03;;;;;;;34.20;20.73;;;;;;;-13.74;67.58;143957.88;5083516;28;20095;-62
2023/02/22 05:33:29;;;;;;;30.23;19.83;;;;;;;-13.79;65.93;143945.34;5084369;28;20028;-65
2023/02/22 05:35:54;;;;;;;33.13;20.05;;;;;;;-13.72;67.74;143962.91;5083800;28;20056;-64
2023/02/22 05:38:21;;;;;;;29.08;20.35;;;;;;;-13.74;66.84;143957.88;5083669;28;20028;-64
2023/02/22 05:40:47;;;;;;;30.48;20.00;;;;;;;-13.65;66.38;143979.25;5083939;28;20036;-63
2023/02/22 05:43:14;;;;;;;31.65;20.38;;;;;;;-13.54;66.60;144005.59;5083509;28;20036;-63
2023/02/22 05:45:40;;;;;;;30.17;20.00;;;;;;;-13.80;67.21;143942.81;5082837;28;20112;-63
2023/02/22 05:48:06;;;;;;;29.02;19.48;;;;;;;-13.73;67.44;143959.16;5083651;28;20036;-62
2023/02/22 05:50:32;;;;;;;32.42;21.10;;;;;;;-13.65;65.84;143977.97;5083705;28;20027;-62
2023/02/22 05:52:58;;;;;;;30.50;19.73;;;;;;;-14.00;65.83;143892.66;5082663;28;20032;-63
2023/02/22 05:55:24;;;;;;;28.80;19.48;;;;;;;-13.94;66.87;143907.69;5084115;28;20037;-63
2023/02/22 05:57:51;;;;;;;27.38;18.85;;;;;;;-13.67;67.27;143974.22;5083934;28;20035;-64
2023/02/22 06:00:23;;;;;;;31.13;18.73;;;;;;;-13.91;65.94;143916.50;5083813;28;20186;-63
2023/02/22 06:03:00;;;;;;;32.50;19.88;;;;;;;-13.63;66.21;143983.00;5083786;28;20032;-63
2023/02/22 06:05:26;;;;;;;29.20;19.80;;;;;;;-13.77;66.44;143949.09;5083787;28;20027;-62
2023/02/22 06:07:52;;;;;;;30.02;19.75;;;;;;;-13.61;65.97;143988.00;5083575;28;20091;-63
2023/02/22 06:10:18;;;;;;;31.92;21.35;;;;;;;-13.34;66.13;144053.31;5083491;28;20040;-65
2023/02/22 06:12:45;;;;;;;32.05;19.52;;;;;;;-13.40;66.11;144040.72;5080405;28;20267;-63
2023/02/22 06:15:11;;;;;;;30.58;19.00;;;;;;;-13.46;65.51;144024.44;5083546;28;20273;-63
2023/02/22 06:17:38;;;;;;;29.00;19.08;;;;;;;-13.43;64.80;144033.22;5065024;28;20035;-64
2023/02/22 06:20:04;;;;;;;30.92;19.02;;;;;;;-13.47;65.04;144023.16;5083221;28;20305;-63
2023/02/22 06:22:29;;;;;;;30.67;20.02;;;;;;;-13.11;65.39;144111.03;5083421;28;20074;-63
2023/02/22 06:24:55;;;;;;;30.83;19.95;;;;;;;-13.06;64.60;144123.56;5082976;28;20029;-63
2023/02/22 06:27:21;;;;;;;29.55;18.23;;;;;;;-13.22;63.71;144083.41;5065434;28;20364;-64
2023/02/22 06:29:46;;;;;;;35.33;25.33;;;;;;;-13.07;64.57;144119.81;5083747;28;20062;-63
2023/02/22 06:32:13;;;;;;;27.55;18.20;;;;;;;-13.17;64.35;144094.69;5083125;28;20021;-65
2023/02/22 06:34:39;;;;;;;30.48;18.35;;;;;;;-13.24;64.97;144079.66;5083470;28;20251;-65
2023/02/22 06:37:06;;;;;;;28.08;18.52;;;;;;;-13.04;64.04;144128.63;5083371;28;20106;-64
2023/02/22 06:39:32;;;;;;;28.35;17.75;;;;;;;-12.95;64.45;144149.97;5083299;28;20035;-64
2023/02/22 06:41:59;;;;;;;29.30;17.88;;;;;;;-13.30;63.94;144063.31;5082850;28;20092;-66
2023/02/22 06:44:25;;;;;;;31.10;18.33;;;;;;;-13.11;64.19;144109.75;5082661;28;20499;-64
2023/02/22 06:46:51;;;;;;;29.70;17.98;;;;;;;-12.95;64.31;144148.69;5082545;28;20033;-65
2023/02/22 06:49:18;;;;;;;34.50;18.50;;;;;;;-12.91;63.66;144160.03;5082838;28;20033;-64
2023/02/22 06:51:44;;;;;;;29.00;16.50;;;;;;;-13.03;63.87;144129.88;5083360;28;20101;-62
2023/02/22 06:54:09;;;;;;;24.95;15.88;;;;;;;-12.90;63.54;144161.25;5082994;28;20044;-63
2023/02/22 06:56:35;;;;;;;34.75;20.63;;;;;;;-12.73;62.58;144203.97;5083024;28;20048;-63
2023/02/22 06:59:00;;;;;;;31.42;17.33;;;;;;;-12.88;64.08;144167.56;5064977;28;20028;-65
2023/02/22 07:01:27;;;;;;;28.83;17.27;;;;;;;-12.86;62.47;144172.56;5082995;28;20016;-64
2023/02/22 07:03:52;;;;;;;26.35;15.70;;;;;;;-12.92;61.92;144156.25;5082274;28;20028;-62
2023/02/22 07:06:18;;;;;;;26.80;16.10;;;;;;;-12.74;61.84;144201.50;5081881;28;20231;-63
2023/02/22 07:08:44;;;;;;;27.85;17.02;;;;;;;-12.59;62.52;144237.91;5064994;28;20032;-64
2023/02/22 07:11:09;;;;;;;27.70;16.25;;;;;;;-12.55;62.86;144246.72;5082498;28;20020;-63
2023/02/22 07:13:35;;;;;;;24.45;14.77;;;;;;;-12.69;61.65;144212.78;5083133;28;20044;-64
2023/02/22 07:16:00;;;;;;;28.10;15.40;;;;;;;-11.83;61.87;144422.63;5082912;28;20024;-63
2023/02/22 07:18:26;;;;;;;29.90;14.75;;;;;;;-11.42;60.56;144523.25;5082114;28;20348;-63
2023/02/22 07:20:52;;;;;;;29.08;15.50;;;;;;;-11.46;60.21;144513.19;5081587;28;20103;-63
2023/02/22 07:23:17;;;;;;;26.20;15.43;;;;;;;-11.75;59.19;144441.53;5082160;28;20024;-64
2023/02/22 07:25:43;;;;;;;26.88;14.88;;;;;;;-11.90;59.37;144405.03;5082288;28;20182;-63
2023/02/22 07:28:09;;;;;;;28.02;15.52;;;;;;;-11.34;60.11;144543.41;5081619;28;20032;-64
2023/02/22 07:30:36;;;;;;;21.92;14.82;;;;;;;-10.81;57.48;144671.75;5082133;28;20025;-64
2023/02/22 07:33:05;;;;;;;27.15;14.70;;;;;;;-10.90;57.95;144649.09;5082197;28;20028;-63
2023/02/22 07:35:35;;;;;;;25.30;15.25;;;;;;;-10.30;56.02;144797.63;5082051;28;20024;-64
2023/02/22 07:38:01;;;;;;;23.42;14.50;;;;;;;-10.28;56.90;144801.38;5082012;28;20029;-62
2023/02/22 07:40:27;;;;;;;25.08;15.40;;;;;;;-9.98;54.84;144875.69;5082387;28;20028;-65
2023/02/22 07:43:13;;;;;;;24.23;14.10;;;;;;;-9.99;55.67;144871.91;5082375;28;20101;-63
2023/02/22 07:45:38;;;;;;;25.42;14.20;;;;;;;-9.50;54.80;144992.91;5082192;28;20049;-63
2023/02/22 07:48:05;;;;;;;24.10;13.73;;;;;;;-9.36;55.04;145026.94;5064275;28;20039;-62
2023/02/22 07:50:32;;;;;;;27.85;14.70;;;;;;;-9.29;53.14;145044.59;5077450;28;20028;-63
2023/02/22 07:53:00;;;;;;;23.92;13.52;;;;;;;-8.82;52.24;145158.03;5071938;28;20333;-63
2023/02/22 07:55:28;;;;;;;24.67;13.93;;;;;;;-8.76;51.12;145173.22;5076560;28;20035;-63
2023/02/22 07:57:56;;;;;;;25.42;14.15;;;;;;;-8.97;50.39;145121.50;5081647;28;20087;-63
2023/02/22 08:00:25;;;;;;;26.52;14.48;;;;;;;-8.65;51.48;145199.66;5081822;28;20024;-64
2023/02/22 08:02:51;;;;;;;23.70;12.77;;;;;;;-8.68;50.90;145194.66;5063125;28;20085;-65
2023/02/22 08:05:18;;;;;;;23.45;14.02;;;;;;;-8.41;51.35;145260.16;5081108;28;20103;-63
2023/02/22 08:07:43;;;;;;;21.70;13.10;;;;;;;-8.92;52.51;145135.38;5081631;28;20032;-64
2023/02/22 08:10:10;;;;;;;28.42;14.63;;;;;;;-8.67;51.33;145195.88;5081514;28;20101;-64
2023/02/22 08:12:36;;;;;;;21.70;14.05;;;;;;;-8.69;51.22;145192.09;5081638;28;20020;-64
2023/02/22 08:15:08;;;;;;;23.10;13.35;;;;;;;-8.85;51.35;145151.72;5077621;28;20021;-63
2023/02/22 08:17:33;;;;;;;;;;;;;;;-8.76;50.01;145173.22;5083253;28;20036;-64
2023/02/22 08:19:59;;;;;;;24.50;13.85;;;;;;;-8.32;50.47;145281.66;5085472;28;19911;-64
2023/02/22 08:22:26;;;;;;;25.27;13.82;;;;;;;-7.70;49.79;145434.31;5085575;28;20036;-64
2023/02/22 08:24:53;;;;;;;20.02;12.38;;;;;;;-8.52;49.17;145233.75;5083636;28;20394;-65
2023/02/22 08:27:32;;;;;;;23.23;13.27;;;;;;;-8.31;50.45;145284.13;5085072;28;20085;-63
2023/02/22 08:29:58;;;;;;;23.33;13.48;;;;;;;-7.83;49.47;145401.53;5067934;28;20159;-63
2023/02/22 08:32:24;;;;;;;22.25;13.75;;;;;;;-8.51;48.44;145236.28;5085724;28;20028;-65
2023/02/22 08:34:50;;;;;;;26.33;14.18;;;;;;;-7.98;49.64;145366.19;5083770;28;20020;-64
2023/02/22 08:37:16;;;;;;;25.75;14.40;;;;;;;-7.92;49.12;145378.78;5085272;28;20089;-65
2023/02/22 08:39:43;;;;;;;19.40;13.02;;;;;;;-7.92;49.43;145380.06;5078153;28;20309;-63
2023/02/22 08:42:09;;;;;;;20.50;12.45;;;;;;;-8.28;48.57;145291.69;5085545;28;20175;-64
2023/02/22 08:44:36;;;;;;;25.00;14.00;;;;;;;-8.28;49.39;145290.44;5085636;28;20059;-66
2023/02/22 08:47:02;;;;;;;20.95;13.05;;;;;;;-8.21;49.42;145308.13;5083620;28;20204;-64
2023/02/22 08:49:27;;;;;;;19.65;12.73;;;;;;;-7.89;50.52;145387.63;5082393;28;20036;-64
2023/02/22 08:51:53;;;;;;;23.48;14.25;;;;;;;-7.67;49.91;145440.66;5082960;28;20073;-63
2023/02/22 08:54:18;;;;;;;20.83;12.45;;;;;;;-8.09;49.96;145337.13;5082129;28;20023;-62
2023/02/22 08:56:44;;;;;;;22.02;13.25;;;;;;;-7.81;48.15;145407.84;5083512;28;20021;-65
2023/02/22 08:59:10;;;;;;;23.00;13.55;;;;;;;-7.72;47.99;145428.06;5081878;28;20530;-65
2023/02/22 09:01:36;;;;;;;22.42;13.80;;;;;;;-7.50;47.93;145482.31;5081241;28;20024;-64
2023/02/22 09:04:01;;;;;;;22.15;13.70;;;;;;;-7.59;48.85;145459.63;5080627;28;20084;-65
2023/02/22 09:06:28;;;;;;;23.23;14.27;;;;;;;-7.41;48.73;145503.78;5082481;28;20190;-62
2023/02/22 09:08:54;;;;;;;25.38;14.77;;;;;;;-7.05;47.94;145593.47;5083699;28;20031;-68
2023/02/22 09:11:20;;;;;;;24.35;14.30;;;;;;;-6.76;48.98;145665.47;5063973;28;20024;-65
2023/02/22 09:13:45;;;;;;;24.60;14.38;;;;;;;-6.30;46.78;145776.69;5082246;28;20024;-63
2023/02/22 09:16:11;;;;;;;21.48;13.00;;;;;;;-6.10;46.46;145827.28;5081493;28;20040;-63
2023/02/22 09:18:37;;;;;;;22.33;13.73;;;;;;;-5.97;45.80;145857.63;5080707;28;20344;-64
2023/02/22 09:21:03;;;;;;;22.90;13.30;;;;;;;-5.82;47.82;145895.50;5079934;28;20197;-65
2023/02/22 09:23:29;;;;;;;23.48;13.85;;;;;;;-6.05;46.07;145838.66;5080940;28;20024;-65
2023/02/22 09:25:55;;;;;;;27.55;14.45;;;;;;;-6.12;45.28;145820.97;5081455;28;20046;-63
2023/02/22 09:28:20;;;;;;;21.40;14.07;;;;;;;-6.86;45.40;145638.97;5062272;28;20050;-62
2023/02/22 09:30:47;;;;;;;24.95;14.70;;;;;;;-6.33;46.80;145769.13;5063239;28;20032;-64
2023/02/22 09:33:17;;;;;;;24.75;13.55;;;;;;;-6.48;46.20;145732.47;5079856;28;20028;-65
2023/02/22 09:35:48;;;;;;;25.33;14.02;;;;;;;-6.04;47.91;145841.22;5080234;28;20031;-66
2023/02/22 09:38:17;;;;;;;23.55;14.93;;;;;;;-5.78;45.63;145904.38;5071766;28;20297;-64
2023/02/22 09:40:48;;;;;;;26.05;15.10;;;;;;;-5.87;45.14;145881.59;5080772;28;20092;-66
2023/02/22 09:43:13;;;;;;;26.90;14.90;;;;;;;-6.35;47.02;145764.09;5073476;28;20159;-63
2023/02/22 09:45:57;;;;;;;22.13;14.68;;;;;;;-6.71;47.05;145676.88;5080111;28;20468;-64
2023/02/22 09:48:24;;;;;;;21.67;13.07;;;;;;;-7.14;46.01;145572.00;5069844;28;20316;-63
2023/02/22 09:50:57;;;;;;;23.17;13.68;;;;;;;-8.15;46.17;145324.53;5080809;28;20032;-65
2023/02/22 09:53:35;;;;;;;25.50;14.63;;;;;;;-7.59;48.09;145460.88;5081316;28;20064;-63
2023/02/22 09:56:17;;;;;;;23.38;14.38;;;;;;;-7.76;48.85;145417.94;5081135;28;20043;-63
2023/02/22 09:58:51;;;;;;;21.63;13.27;;;;;;;-8.22;47.72;145306.88;5077222;28;20075;-63
2023/02/22 10:01:37;;;;;;;23.40;13.90;;;;;;;-8.15;49.82;145323.28;5071285;28;20040;-64
2023/02/22 10:04:41;;;;;;;23.95;14.57;;;;;;;-8.36;48.74;145271.53;5079673;28;20267;-62
2023/02/22 10:07:45;;;;;;;26.80;13.57;;;;;;;-8.66;50.04;145198.44;5057475;28;20052;-62
2023/02/22 10:10:20;;;;;;;21.23;13.32;;;;;;;-9.11;49.91;145087.44;5017133;28;20021;-64
2023/02/22 10:13:04;;;;;;;24.38;13.88;;;;;;;-9.29;51.94;145044.59;5067625;28;20032;-63
2023/02/22 10:15:53;;;;;;;22.65;13.20;;;;;;;-9.03;52.40;145107.63;5080190;28;20047;-63
2023/02/22 10:18:55;;;;;;;22.83;13.07;;;;;;;-8.94;52.33;145130.28;5071303;28;20062;-63
2023/02/22 10:21:20;;;;;;;;;;;;;;;-9.24;50.29;145057.16;5080788;28;20029;-62
2023/02/22 10:23:56;;;;;;;24.20;13.10;;;;;;;-9.30;52.54;145040.81;5063802;28;19911;-65
2023/02/22 10:26:29;;;;;;;23.20;13.07;;;;;;;-9.42;53.27;145013.06;5080520;28;20067;-64
2023/02/22 10:29:07;;;;;;;18.42;12.10;;;;;;;-8.83;53.20;145155.50;5079904;28;20031;-63
2023/02/22 10:31:41;;;;;;;23.83;13.45;;;;;;;-8.94;52.60;145130.28;5078949;28;20020;-63
2023/02/22 10:34:14;;;;;;;22.08;12.75;;;;;;;-8.99;51.79;145116.44;5077367;28;20139;-64
2023/02/22 10:36:44;;;;;;;20.63;11.88;;;;;;;-8.85;52.83;145151.72;5078543;28;20094;-65
2023/02/22 10:39:28;;;;;;;20.63;11.40;;;;;;;-8.97;50.96;145122.75;5079666;28;20036;-64
2023/02/22 10:41:56;;;;;;;21.63;12.90;;;;;;;-9.29;52.00;145043.28;5080641;28;20041;-63
2023/02/22 10:44:23;;;;;;;27.75;12.20;;;;;;;-9.14;53.43;145081.13;5080652;28;20092;-64
2023/02/22 10:46:48;;;;;;;25.20;12.85;;;;;;;-8.88;52.59;145145.47;5078199;28;20162;-63
2023/02/22 10:49:23;;;;;;;19.73;12.02;;;;;;;-8.94;51.43;145130.28;5079824;28;20637;-64
2023/02/22 10:52:00;;;;;;;22.40;13.57;;;;;;;-9.19;52.19;145068.53;5080252;28;20088;-64
2023/02/22 10:54:32;;;;;;;23.60;12.95;;;;;;;-9.09;54.04;145092.47;5079254;28;20321;-64
2023/02/22 10:56:59;;;;;;;22.60;12.70;;;;;;;-9.03;52.75;145107.63;5079086;28;20028;-65
2023/02/22 10:59:27;;;;;;;21.77;12.52;;;;;;;-9.05;53.29;145102.56;5062503;28;20983;-65
2023/02/22 11:01:53;;;;;;;19.65;12.40;;;;;;;-8.76;53.55;145173.22;5043831;28;20375;-63
2023/02/22 11:04:21;;;;;;;20.00;12.13;;;;;;;-8.66;52.24;145198.44;5079013;28;20032;-63
2023/02/22 11:07:05;;;;;;;19.25;12.35;;;;;;;-9.00;52.62;145115.19;5079350;28;20020;-64
2023/02/22 11:09:30;;;;;;;19.85;12.23;;;;;;;-8.77;52.74;145170.66;5079291;28;20058;-63
2023/02/22 11:12:31;;;;;;;23.70;13.25;;;;;;;-8.51;52.43;145236.28;5080739;28;20037;-64
2023/02/22 11:15:21;;;;;;;22.85;13.02;;;;;;;-8.58;53.24;145217.31;5049411;28;20324;-64
2023/02/22 11:17:49;;;;;;;22.95;13.07;;;;;;;-8.71;53.29;145187.03;5061929;28;20103;-62